createdAt,value
2022-11-02T00:04:10.694Z,62.16
2022-11-02T00:09:04.974Z,62.26
2022-11-02T00:13:58.627Z,62.19
2022-11-02T00:18:59.426Z,62.21
2022-11-02T00:23:53.640Z,62.27
2022-11-02T00:28:46.986Z,62.26
2022-11-02T00:33:40.195Z,62.16
2022-11-02T00:38:35.998Z,61.93
2022-11-02T00:43:28.894Z,62.12
2022-11-02T00:48:22.449Z,62.10
2022-11-02T00:53:15.774Z,62.12
2022-11-02T00:58:16.130Z,62.12
2022-11-02T01:03:09.617Z,62.30
2022-11-02T01:08:03.896Z,62.01
2022-11-02T01:12:58.627Z,62.18
2022-11-02T01:17:53.005Z,62.33
2022-11-02T01:22:46.178Z,62.12
2022-11-02T01:27:39.790Z,62.09
2022-11-02T01:32:32.524Z,61.92
2022-11-02T01:37:26.171Z,62.24
2022-11-02T01:42:24.803Z,62.10
2022-11-02T01:47:32.285Z,62.31
2022-11-02T01:52:39.038Z,62.37
2022-11-02T01:57:34.575Z,62.20
2022-11-02T02:02:28.883Z,61.92
2022-11-02T02:07:25.119Z,62.06
2022-11-02T02:12:18.753Z,62.01
2022-11-02T02:17:37.758Z,62.09
2022-11-02T02:22:33.569Z,62.29
2022-11-02T02:27:47.220Z,62.24
2022-11-02T02:32:56.736Z,62.17
2022-11-02T02:38:02.674Z,61.92
2022-11-02T02:43:29.214Z,62.27
2022-11-02T02:48:31.232Z,62.26
2022-11-02T02:53:36.132Z,62.07
2022-11-02T02:58:36.433Z,61.97
2022-11-02T03:03:35.438Z,61.84
2022-11-02T03:08:30.511Z,61.74
2022-11-02T03:13:48.447Z,61.94
2022-11-02T03:18:49.759Z,61.81
2022-11-02T03:24:10.033Z,61.79
2022-11-02T03:30:01.439Z,61.68
2022-11-02T03:34:59.534Z,61.88
2022-11-02T03:40:11.807Z,61.75
2022-11-02T03:45:39.814Z,61.66
2022-11-02T03:50:53.567Z,61.85
2022-11-02T03:56:09.504Z,61.89
2022-11-02T04:01:10.980Z,61.62
2022-11-02T04:06:05.372Z,61.75
2022-11-02T04:11:19.909Z,61.88
2022-11-02T04:16:15.841Z,61.82
2022-11-02T04:21:28.580Z,61.92
2022-11-02T04:26:43.942Z,61.90
2022-11-02T04:31:37.058Z,61.57
2022-11-02T04:36:31.971Z,61.82
2022-11-02T04:41:43.844Z,61.69
2022-11-02T04:46:44.975Z,61.73
2022-11-02T04:51:47.161Z,61.58
2022-11-02T04:56:43.812Z,61.64
2022-11-02T05:01:38.850Z,61.43
2022-11-02T05:06:32.555Z,61.39
2022-11-02T05:11:26.020Z,61.32
2022-11-02T05:16:21.531Z,61.55
2022-11-02T05:21:17.890Z,61.54
2022-11-02T05:26:12.358Z,61.29
2022-11-02T05:31:09.502Z,61.20
2022-11-02T05:36:02.827Z,61.34
2022-11-02T05:41:03.233Z,61.47
2022-11-02T05:46:03.688Z,61.59
2022-11-02T05:51:01.964Z,61.68
2022-11-02T05:55:59.647Z,61.57
2022-11-02T06:00:53.379Z,61.59
2022-11-02T06:05:46.970Z,61.56
2022-11-02T06:10:39.557Z,61.40
2022-11-02T06:15:37.162Z,61.38
2022-11-02T06:20:31.535Z,61.23
2022-11-02T06:25:25.476Z,61.32
2022-11-02T06:30:19.722Z,61.43
2022-11-02T06:35:13.715Z,61.53
2022-11-02T06:40:08.352Z,61.46
2022-11-02T06:45:03.140Z,61.51
2022-11-02T06:49:56.666Z,61.53
2022-11-02T06:54:51.134Z,61.15
2022-11-02T06:59:47.794Z,61.11
2022-11-02T07:04:43.304Z,60.68
2022-11-02T07:09:41.843Z,60.58
2022-11-02T07:14:35.295Z,60.29
2022-11-02T07:19:29.588Z,60.48
2022-11-02T07:24:23.614Z,60.72
2022-11-02T07:29:18.463Z,60.40
2022-11-02T07:34:16.667Z,60.47
2022-11-02T07:39:10.421Z,60.61
2022-11-02T07:44:03.933Z,60.71
2022-11-02T07:49:02.535Z,60.73
2022-11-02T07:53:56.837Z,60.12
2022-11-02T07:58:50.465Z,59.40
2022-11-02T08:03:43.706Z,60.15
2022-11-02T08:08:37.792Z,57.82
2022-11-02T08:13:33.161Z,58.57
2022-11-02T08:18:28.689Z,59.66
2022-11-02T08:23:22.048Z,59.22
2022-11-02T08:28:27.099Z,59.04
2022-11-02T08:33:20.419Z,57.24
2022-11-02T08:38:13.166Z,58.61
2022-11-02T08:43:08.739Z,56.96
2022-11-02T08:48:02.845Z,58.08
2022-11-02T08:52:56.510Z,56.26
2022-11-02T08:57:54.814Z,56.46
2022-11-02T09:03:14.114Z,58.17
2022-11-02T09:08:14.013Z,56.50
2022-11-02T09:13:10.330Z,56.91
2022-11-02T09:18:04.072Z,56.67
2022-11-02T09:22:57.650Z,57.27
2022-11-02T09:27:57.186Z,57.35
2022-11-02T09:33:04.244Z,57.29
2022-11-02T09:37:58.383Z,58.06
2022-11-02T09:43:09.321Z,57.67
2022-11-02T09:48:23.344Z,58.07
2022-11-02T09:53:40.731Z,57.42
2022-11-02T09:58:38.925Z,57.57
2022-11-02T10:03:46.296Z,57.78
2022-11-02T10:09:08.389Z,58.29
2022-11-02T10:14:28.223Z,58.17
2022-11-02T10:19:26.227Z,58.10
2022-11-02T10:24:22.714Z,58.50
2022-11-02T10:29:18.534Z,58.21
2022-11-02T10:34:28.414Z,59.04
2022-11-02T10:39:53.097Z,58.30
2022-11-02T10:45:00.325Z,58.55
2022-11-02T10:50:20.990Z,58.49
2022-11-02T10:55:52.116Z,58.73
2022-11-02T11:00:45.266Z,58.87
2022-11-02T11:05:49.863Z,58.81
2022-11-02T11:10:51.714Z,59.40
2022-11-02T11:15:53.219Z,58.98
2022-11-02T11:20:47.190Z,59.10
2022-11-02T11:25:41.868Z,59.18
2022-11-02T11:31:06.137Z,59.05
2022-11-02T11:36:01.749Z,59.27
2022-11-02T11:40:59.714Z,59.06
2022-11-02T11:46:06.490Z,59.29
2022-11-02T11:51:05.314Z,59.49
2022-11-02T11:55:59.980Z,59.33
2022-11-02T12:01:11.263Z,59.20
2022-11-02T12:06:08.479Z,59.26
2022-11-02T12:11:19.106Z,59.39
2022-11-02T12:16:22.499Z,59.88
2022-11-02T12:21:27.924Z,60.34
2022-11-02T12:26:36.032Z,61.51
2022-11-02T12:31:41.263Z,62.18
2022-11-02T12:42:27.812Z,63.68
2022-11-02T12:47:47.299Z,64.15
2022-11-02T12:52:44.929Z,63.02
2022-11-02T12:57:39.508Z,64.01
2022-11-02T13:02:37.023Z,64.10
2022-11-02T13:07:56.927Z,63.92
2022-11-02T13:12:53.896Z,63.32
2022-11-02T13:18:07.779Z,62.94
2022-11-02T13:23:08.456Z,62.54
2022-11-02T13:28:06.264Z,62.86
2022-11-02T13:33:26.536Z,63.30
2022-11-02T13:38:28.576Z,64.12
2022-11-02T13:43:36.707Z,64.40
2022-11-02T13:48:48.805Z,64.10
2022-11-02T13:53:52.368Z,64.34
2022-11-02T13:58:53.854Z,65.36
2022-11-02T14:03:49.889Z,64.69
2022-11-02T14:08:51.055Z,64.38
2022-11-02T14:14:04.259Z,65.75
2022-11-02T14:19:34.283Z,63.33
2022-11-02T14:24:40.451Z,65.60
2022-11-02T14:29:48.573Z,64.87
2022-11-02T14:35:01.118Z,66.29
2022-11-02T14:40:12.576Z,65.29
2022-11-02T14:45:08.130Z,65.74
2022-11-02T14:50:15.120Z,64.24
2022-11-02T14:55:20.164Z,66.27
2022-11-02T15:00:23.504Z,66.84
2022-11-02T15:05:39.644Z,66.80
2022-11-02T15:10:32.804Z,66.21
2022-11-02T15:15:25.417Z,65.50
2022-11-02T15:20:27.742Z,65.32
2022-11-02T15:25:35.937Z,64.76
2022-11-02T15:30:30.396Z,66.41
2022-11-02T15:35:26.656Z,67.34
2022-11-02T15:40:23.487Z,65.73
2022-11-02T15:45:48.831Z,66.35
2022-11-02T15:51:01.314Z,66.44
2022-11-02T15:56:13.541Z,66.70
2022-11-02T16:01:22.067Z,66.45
2022-11-02T16:06:16.315Z,66.84
2022-11-02T16:11:17.604Z,66.41
2022-11-02T16:16:19.022Z,65.84
2022-11-02T16:21:16.650Z,65.99
2022-11-02T16:26:20.359Z,65.76
2022-11-02T16:31:18.469Z,65.52
2022-11-02T16:36:17.255Z,65.78
2022-11-02T16:41:10.848Z,66.46
2022-11-02T16:46:06.752Z,65.85
2022-11-02T16:51:14.844Z,65.64
2022-11-02T16:56:16.732Z,65.69
2022-11-02T17:01:24.297Z,65.83
2022-11-02T17:06:19.539Z,65.95
2022-11-02T17:11:16.543Z,65.76
2022-11-02T17:16:11.965Z,65.80
2022-11-02T17:21:14.814Z,65.96
2022-11-02T17:26:22.886Z,65.83
2022-11-02T17:31:20.621Z,65.50
2022-11-02T17:36:15.103Z,66.69
2022-11-02T17:41:30.786Z,66.56
2022-11-02T17:46:23.463Z,66.82
2022-11-02T17:51:16.337Z,67.62
2022-11-02T17:56:11.366Z,68.20
2022-11-02T18:01:06.883Z,67.10
2022-11-02T18:06:00.945Z,66.63
2022-11-02T18:10:55.504Z,66.60
2022-11-02T18:15:49.629Z,66.48
2022-11-02T18:20:43.102Z,66.17
2022-11-02T18:25:36.702Z,66.66
2022-11-02T18:30:32.455Z,67.16
2022-11-02T18:35:25.652Z,66.39
2022-11-02T18:40:21.405Z,67.64
2022-11-02T18:45:15.645Z,66.96
2022-11-02T18:50:09.794Z,66.47
2022-11-02T18:55:04.090Z,66.80
2022-11-02T18:59:56.770Z,64.96
2022-11-02T19:04:49.843Z,65.24
2022-11-02T19:09:43.738Z,66.02
2022-11-02T19:14:40.967Z,66.74
2022-11-02T19:19:34.311Z,66.22
2022-11-02T19:24:27.598Z,60.89
2022-11-02T19:29:21.607Z,60.25
2022-11-02T19:34:15.298Z,60.14
2022-11-02T19:39:14.325Z,61.01
2022-11-02T19:44:08.613Z,61.48
2022-11-02T19:49:02.016Z,60.92
2022-11-02T19:53:58.728Z,59.64
2022-11-02T19:58:52.847Z,59.73
2022-11-02T20:03:47.973Z,59.30
2022-11-02T20:08:41.373Z,59.36
2022-11-02T20:13:37.125Z,59.97
2022-11-02T20:18:31.013Z,60.72
2022-11-02T20:23:24.867Z,61.67
2022-11-02T20:28:18.597Z,63.64
2022-11-02T20:33:11.634Z,64.55
2022-11-02T20:38:05.597Z,67.09
2022-11-02T20:42:59.776Z,67.87
2022-11-02T20:47:57.759Z,68.16
2022-11-02T20:52:53.570Z,68.38
2022-11-02T20:57:49.573Z,67.08
2022-11-02T21:02:43.461Z,67.19
2022-11-02T21:07:37.087Z,67.99
2022-11-02T21:12:48.571Z,68.56
2022-11-02T21:17:44.168Z,68.53
2022-11-02T21:22:37.733Z,68.74
2022-11-02T21:27:31.734Z,68.74
2022-11-02T21:32:29.856Z,67.64
2022-11-02T21:37:23.451Z,68.15
2022-11-02T21:42:16.627Z,67.67
2022-11-02T21:47:11.395Z,67.26
2022-11-02T21:52:04.639Z,66.93
2022-11-02T21:56:59.586Z,67.19
2022-11-02T22:01:53.599Z,67.06
2022-11-02T22:06:47.058Z,67.18
2022-11-02T22:11:41.159Z,67.21
2022-11-02T22:16:36.683Z,67.17
2022-11-02T22:21:32.013Z,67.14
2022-11-02T22:26:27.780Z,67.52
2022-11-02T22:31:30.113Z,67.39
2022-11-02T22:36:25.664Z,67.26
2022-11-02T22:41:26.655Z,67.33
2022-11-02T22:46:19.907Z,67.51
2022-11-02T22:51:14.628Z,67.30
2022-11-02T22:56:29.472Z,67.46
2022-11-02T23:01:29.139Z,67.30
2022-11-02T23:06:23.792Z,67.26
2022-11-02T23:11:24.484Z,67.45
2022-11-02T23:16:22.174Z,67.26
2022-11-02T23:21:16.256Z,67.52
2022-11-02T23:26:09.313Z,67.26
2022-11-02T23:31:21.217Z,67.45
2022-11-02T23:36:16.016Z,67.93
2022-11-02T23:41:08.926Z,67.71
2022-11-02T23:46:02.626Z,67.63
2022-11-02T23:51:16.234Z,67.82
2022-11-02T23:56:35.118Z,67.79
